KARB

Ann Arbor Municipal Airport

Ann Arbor, Michigan, USA
METAR KARB 211453Z 11008KT 10SM CLR 09/M04 A3047 RMK AO2 SLP323 T00941039 58001
Observed Flight Rules
Apr-21 @ 14:53 UTC (47 minutes ago) Visual Flight Rules
Wind Visibility Clouds
110° at 8 knots 10 miles
  • Clear skies
Temperatures Readings
Current 9°C / 48°F
Dewpoint -4°C / 25°F
Humidity 40%
Altimeter 30.47" Hg
Pressure 1032.3 hPa
Elevation 251
METAR KARB 211453Z 11008KT 10SM CLR 09/M04 A3047 RMK AO2 SLP323 T00941039 58001
Observed Flight Rules
Apr-21 @ 14:53 UTC
(47 minutes ago)
VFR
Wind Visibility
110° at 8 knots 10 miles
Clouds
  • Clear skies
Temperature Dewpoint
9°C / 48°F -4°C / 25°F
Humidity Altimeter Pressure
40% 30.47" Hg 1032.3 hPa